PUA1502 SUMU-SABE
Flight info
| Callsign | PUA1502 |
|---|---|
| Flight time | 0h 27m |
| Altitude | 18000 |
| Route | DAGUS A306 UGIMI UGIMI8Q |
| Aircraft | A320/M-SDE3FGHIRWY/LB1 |
Departure
| Time | 2026-04-21 23:25 |
|---|---|
| Airport | Carrasco General Cesáreo L. Berisso International Airport (SUMU) |
Arrival
| Time | 2026-04-21 23:53 |
|---|---|
| Airport | Aeroparque Jorge Newbery (SABE) |
| Time | Latitude | Longitude | Altitude | Speed | Heading |
|---|---|---|---|---|---|
| 2026-04-21 23:05 | -34.83619 | -56.01802 | 85 ft | 0 kts | 144° |
| 2026-04-21 23:16 | -34.83611 | -56.01809 | 87 ft | 4 kts | 142° |
| 2026-04-21 23:16 | -34.83591 | -56.01830 | 85 ft | 4 kts | 135° |
| 2026-04-21 23:16 | -34.83573 | -56.01854 | 86 ft | 4 kts | 119° |
| 2026-04-21 23:16 | -34.83566 | -56.01881 | 83 ft | 4 kts | 62° |
| 2026-04-21 23:17 | -34.83571 | -56.01891 | 83 ft | 0 kts | 53° |
| 2026-04-21 23:19 | -34.83570 | -56.01890 | 83 ft | 1 kts | 53° |
| 2026-04-21 23:20 | -34.83564 | -56.01880 | 83 ft | 1 kts | 54° |
| 2026-04-21 23:20 | -34.83564 | -56.01879 | 86 ft | 0 kts | 54° |
| 2026-04-21 23:20 | -34.83562 | -56.01877 | 86 ft | 1 kts | 54° |
| 2026-04-21 23:20 | -34.83555 | -56.01865 | 85 ft | 2 kts | 54° |
| 2026-04-21 23:21 | -34.83542 | -56.01842 | 83 ft | 4 kts | 54° |
| 2026-04-21 23:21 | -34.83520 | -56.01804 | 85 ft | 7 kts | 54° |
| 2026-04-21 23:21 | -34.83473 | -56.01765 | 85 ft | 10 kts | 6° |
| 2026-04-21 23:21 | -34.83399 | -56.01807 | 85 ft | 14 kts | 325° |
| 2026-04-21 23:22 | -34.83311 | -56.01854 | 85 ft | 15 kts | 16° |
| 2026-04-21 23:22 | -34.83240 | -56.01761 | 85 ft | 16 kts | 53° |
| 2026-04-21 23:22 | -34.83169 | -56.01645 | 84 ft | 18 kts | 54° |
| 2026-04-21 23:22 | -34.83092 | -56.01514 | 84 ft | 20 kts | 54° |
| 2026-04-21 23:23 | -34.83008 | -56.01374 | 84 ft | 20 kts | 54° |
| 2026-04-21 23:23 | -34.82921 | -56.01240 | 87 ft | 18 kts | 38° |
| 2026-04-21 23:23 | -34.82844 | -56.01257 | 84 ft | 10 kts | 313° |
| 2026-04-21 23:23 | -34.82792 | -56.01303 | 83 ft | 7 kts | 328° |
| 2026-04-21 23:24 | -34.82776 | -56.01331 | 84 ft | 0 kts | 270° |
| 2026-04-21 23:24 | -34.82780 | -56.01342 | 84 ft | 2 kts | 239° |
| 2026-04-21 23:24 | -34.82873 | -56.01493 | 86 ft | 54 kts | 233° |
| 2026-04-21 23:24 | -34.83222 | -56.02068 | 85 ft | 112 kts | 236° |
| 2026-04-21 23:25 | -34.83782 | -56.02983 | 89 ft | 156 kts | 233° |
| 2026-04-21 23:25 | -34.84429 | -56.04070 | 557 ft | 161 kts | 232° |
| 2026-04-21 23:25 | -34.85105 | -56.05166 | 1188 ft | 162 kts | 235° |
| 2026-04-21 23:25 | -34.85847 | -56.06202 | 1829 ft | 163 kts | 233° |
| 2026-04-21 23:26 | -34.86631 | -56.07206 | 2388 ft | 164 kts | 233° |
| 2026-04-21 23:26 | -34.87454 | -56.08270 | 2723 ft | 180 kts | 239° |
| 2026-04-21 23:26 | -34.87912 | -56.09680 | 3036 ft | 189 kts | 265° |
| 2026-04-21 23:26 | -34.88143 | -56.11333 | 3344 ft | 208 kts | 265° |
| 2026-04-21 23:27 | -34.88382 | -56.13158 | 3678 ft | 229 kts | 265° |
| 2026-04-21 23:27 | -34.88640 | -56.15148 | 4200 ft | 242 kts | 265° |
| 2026-04-21 23:27 | -34.88914 | -56.17204 | 4886 ft | 249 kts | 264° |
| 2026-04-21 23:27 | -34.89195 | -56.19298 | 5542 ft | 253 kts | 264° |
| 2026-04-21 23:28 | -34.89481 | -56.21422 | 6122 ft | 255 kts | 263° |
| 2026-04-21 23:28 | -34.89769 | -56.23550 | 6710 ft | 255 kts | 263° |
| 2026-04-21 23:28 | -34.90057 | -56.25684 | 7307 ft | 256 kts | 263° |
| 2026-04-21 23:28 | -34.90346 | -56.27824 | 7922 ft | 256 kts | 263° |
| 2026-04-21 23:29 | -34.90635 | -56.29966 | 8552 ft | 257 kts | 263° |
| 2026-04-21 23:29 | -34.90919 | -56.32089 | 9179 ft | 257 kts | 263° |
| 2026-04-21 23:29 | -34.91214 | -56.34295 | 9842 ft | 265 kts | 263° |
| 2026-04-21 23:29 | -34.91514 | -56.36547 | 10437 ft | 274 kts | 263° |
| 2026-04-21 23:30 | -34.91824 | -56.38876 | 11047 ft | 283 kts | 263° |
| 2026-04-21 23:30 | -34.92148 | -56.41241 | 11653 ft | 291 kts | 263° |
| 2026-04-21 23:30 | -34.92485 | -56.43697 | 12280 ft | 298 kts | 263° |
| 2026-04-21 23:30 | -34.92816 | -56.46211 | 12916 ft | 304 kts | 263° |
| 2026-04-21 23:31 | -34.93153 | -56.48773 | 13620 ft | 308 kts | 264° |
| 2026-04-21 23:31 | -34.93490 | -56.51366 | 14292 ft | 310 kts | 264° |
| 2026-04-21 23:31 | -34.93829 | -56.53973 | 14953 ft | 312 kts | 264° |
| 2026-04-21 23:31 | -34.94170 | -56.56592 | 15630 ft | 313 kts | 264° |
| 2026-04-21 23:32 | -34.94512 | -56.59216 | 16327 ft | 314 kts | 264° |
| 2026-04-21 23:32 | -34.94852 | -56.61839 | 17029 ft | 314 kts | 264° |
| 2026-04-21 23:32 | -34.95194 | -56.64467 | 17714 ft | 316 kts | 265° |
| 2026-04-21 23:32 | -34.95543 | -56.67166 | 17946 ft | 331 kts | 265° |
| 2026-04-21 23:33 | -34.95910 | -56.70030 | 17992 ft | 350 kts | 264° |
| 2026-04-21 23:33 | -34.96287 | -56.72947 | 17984 ft | 347 kts | 264° |
| 2026-04-21 23:33 | -34.96661 | -56.75792 | 17986 ft | 337 kts | 264° |
| 2026-04-21 23:33 | -34.97027 | -56.78606 | 17996 ft | 336 kts | 264° |
| 2026-04-21 23:34 | -34.97388 | -56.81418 | 17991 ft | 335 kts | 264° |
| 2026-04-21 23:34 | -34.97748 | -56.84226 | 17994 ft | 335 kts | 265° |
| 2026-04-21 23:34 | -34.97938 | -56.87033 | 17984 ft | 327 kts | 276° |
| 2026-04-21 23:34 | -34.97516 | -56.89702 | 17994 ft | 319 kts | 285° |
| 2026-04-21 23:35 | -34.96975 | -56.92317 | 17989 ft | 317 kts | 285° |
| 2026-04-21 23:35 | -34.96432 | -56.94922 | 17991 ft | 317 kts | 285° |
| 2026-04-21 23:35 | -34.95889 | -56.97518 | 17983 ft | 317 kts | 285° |
| 2026-04-21 23:35 | -34.95341 | -57.00123 | 17978 ft | 317 kts | 285° |
| 2026-04-21 23:36 | -34.94795 | -57.02717 | 17983 ft | 316 kts | 285° |
| 2026-04-21 23:36 | -34.94245 | -57.05314 | 17985 ft | 316 kts | 285° |
| 2026-04-21 23:36 | -34.93697 | -57.07908 | 17992 ft | 316 kts | 285° |
| 2026-04-21 23:36 | -34.93150 | -57.10506 | 17993 ft | 316 kts | 285° |
| 2026-04-21 23:37 | -34.92602 | -57.13096 | 17996 ft | 316 kts | 285° |
| 2026-04-21 23:37 | -34.92052 | -57.15695 | 17993 ft | 316 kts | 285° |
| 2026-04-21 23:37 | -34.91500 | -57.18291 | 17992 ft | 317 kts | 285° |
| 2026-04-21 23:37 | -34.90949 | -57.20888 | 18002 ft | 317 kts | 285° |
| 2026-04-21 23:38 | -34.90398 | -57.23483 | 17998 ft | 317 kts | 285° |
| 2026-04-21 23:38 | -34.89853 | -57.26046 | 18007 ft | 316 kts | 285° |
| 2026-04-21 23:38 | -34.89302 | -57.28640 | 17671 ft | 314 kts | 285° |
| 2026-04-21 23:38 | -34.88764 | -57.31179 | 17364 ft | 307 kts | 285° |
| 2026-04-21 23:39 | -34.88233 | -57.33678 | 16904 ft | 305 kts | 285° |
| 2026-04-21 23:39 | -34.87699 | -57.36176 | 16397 ft | 305 kts | 285° |
| 2026-04-21 23:39 | -34.87157 | -57.38705 | 15878 ft | 312 kts | 285° |
| 2026-04-21 23:39 | -34.86610 | -57.41259 | 15364 ft | 312 kts | 285° |
| 2026-04-21 23:40 | -34.86062 | -57.43809 | 14864 ft | 313 kts | 285° |
| 2026-04-21 23:40 | -34.85503 | -57.46399 | 14367 ft | 318 kts | 285° |
| 2026-04-21 23:40 | -34.84942 | -57.49002 | 13877 ft | 317 kts | 285° |
| 2026-04-21 23:40 | -34.84385 | -57.51587 | 13340 ft | 315 kts | 286° |
| 2026-04-21 23:41 | -34.83832 | -57.54159 | 12800 ft | 313 kts | 285° |
| 2026-04-21 23:41 | -34.83284 | -57.56715 | 12269 ft | 311 kts | 285° |
| 2026-04-21 23:41 | -34.82741 | -57.59258 | 11752 ft | 310 kts | 285° |
| 2026-04-21 23:41 | -34.82195 | -57.61792 | 11237 ft | 309 kts | 285° |
| 2026-04-21 23:42 | -34.81650 | -57.64315 | 10737 ft | 308 kts | 285° |
| 2026-04-21 23:42 | -34.81103 | -57.66834 | 10235 ft | 308 kts | 285° |
| 2026-04-21 23:42 | -34.80556 | -57.69346 | 9725 ft | 307 kts | 285° |
| 2026-04-21 23:42 | -34.80016 | -57.71824 | 9195 ft | 307 kts | 285° |
| 2026-04-21 23:43 | -34.79462 | -57.74363 | 8659 ft | 306 kts | 285° |
| 2026-04-21 23:43 | -34.78917 | -57.76864 | 8126 ft | 306 kts | 285° |
| 2026-04-21 23:43 | -34.78380 | -57.79336 | 7619 ft | 306 kts | 285° |
| 2026-04-21 23:43 | -34.77836 | -57.81836 | 7105 ft | 306 kts | 285° |
| 2026-04-21 23:44 | -34.77293 | -57.84339 | 6610 ft | 306 kts | 285° |
| 2026-04-21 23:44 | -34.76749 | -57.86848 | 6090 ft | 307 kts | 285° |
| 2026-04-21 23:44 | -34.76204 | -57.89355 | 5568 ft | 306 kts | 285° |
| 2026-04-21 23:44 | -34.75658 | -57.91851 | 5063 ft | 306 kts | 285° |
| 2026-04-21 23:45 | -34.75109 | -57.94350 | 4616 ft | 303 kts | 286° |
| 2026-04-21 23:45 | -34.74060 | -57.99118 | 4278 ft | 282 kts | 285° |
| 2026-04-21 23:45 | -34.73566 | -58.01384 | 4100 ft | 272 kts | 285° |
| 2026-04-21 23:46 | -34.73085 | -58.03577 | 3925 ft | 264 kts | 286° |
| 2026-04-21 23:46 | -34.72615 | -58.05704 | 3755 ft | 257 kts | 286° |
| 2026-04-21 23:46 | -34.72311 | -58.07078 | 3638 ft | 252 kts | 286° |
| 2026-04-21 23:46 | -34.71841 | -58.09198 | 3479 ft | 244 kts | 285° |
| 2026-04-21 23:47 | -34.71405 | -58.11170 | 3292 ft | 239 kts | 285° |
| 2026-04-21 23:47 | -34.70978 | -58.13095 | 3107 ft | 233 kts | 285° |
| 2026-04-21 23:47 | -34.70545 | -58.14950 | 2995 ft | 223 kts | 291° |
| 2026-04-21 23:47 | -34.69833 | -58.16551 | 2989 ft | 217 kts | 303° |
| 2026-04-21 23:48 | -34.68987 | -58.18064 | 2859 ft | 216 kts | 303° |
| 2026-04-21 23:48 | -34.68149 | -58.19574 | 2651 ft | 214 kts | 303° |
| 2026-04-21 23:48 | -34.67319 | -58.21072 | 2525 ft | 214 kts | 303° |
| 2026-04-21 23:48 | -34.66488 | -58.22574 | 2498 ft | 213 kts | 302° |
| 2026-04-21 23:49 | -34.65683 | -58.24022 | 2497 ft | 203 kts | 302° |
| 2026-04-21 23:49 | -34.64901 | -58.25430 | 2499 ft | 200 kts | 303° |
| 2026-04-21 23:49 | -34.64125 | -58.26830 | 2340 ft | 199 kts | 303° |
| 2026-04-21 23:49 | -34.63353 | -58.28223 | 2037 ft | 196 kts | 302° |
| 2026-04-21 23:50 | -34.62595 | -58.29592 | 1720 ft | 192 kts | 301° |
| 2026-04-21 23:50 | -34.61882 | -58.30869 | 1716 ft | 171 kts | 300° |
| 2026-04-21 23:50 | -34.61245 | -58.32005 | 1716 ft | 156 kts | 300° |
| 2026-04-21 23:50 | -34.60661 | -58.33048 | 1613 ft | 145 kts | 300° |
| 2026-04-21 23:51 | -34.60120 | -58.34019 | 1440 ft | 135 kts | 300° |
| 2026-04-21 23:51 | -34.59600 | -58.34957 | 1240 ft | 133 kts | 300° |
| 2026-04-21 23:51 | -34.59085 | -58.35883 | 1051 ft | 132 kts | 301° |
| 2026-04-21 23:51 | -34.58575 | -58.36796 | 859 ft | 133 kts | 300° |
| 2026-04-21 23:52 | -34.58060 | -58.37745 | 651 ft | 133 kts | 300° |
| 2026-04-21 23:52 | -34.57554 | -58.38663 | 470 ft | 134 kts | 301° |
| 2026-04-21 23:52 | -34.57024 | -58.39619 | 315 ft | 138 kts | 300° |
| 2026-04-21 23:52 | -34.56488 | -58.40569 | 81 ft | 136 kts | 301° |
| 2026-04-21 23:53 | -34.56001 | -58.41451 | 27 ft | 108 kts | 303° |
| 2026-04-21 23:53 | -34.55769 | -58.41865 | 26 ft | 23 kts | 306° |
| 2026-04-21 23:53 | -34.55701 | -58.41909 | 29 ft | 8 kts | 22° |
| 2026-04-21 23:53 | -34.55684 | -58.41895 | 25 ft | 0 kts | 36° |
| 2026-04-21 23:54 | -34.55684 | -58.41894 | 25 ft | 0 kts | 36° |
| 2026-04-21 23:55 | -34.55680 | -58.41891 | 25 ft | 2 kts | 36° |
| 2026-04-21 23:55 | -34.55660 | -58.41875 | 25 ft | 5 kts | 33° |
| 2026-04-21 23:56 | -34.55626 | -58.41848 | 27 ft | 7 kts | 33° |
| 2026-04-21 23:56 | -34.55610 | -58.41808 | 29 ft | 5 kts | 86° |
| 2026-04-21 23:56 | -34.55614 | -58.41791 | 25 ft | 3 kts | 109° |
| 2026-04-21 23:56 | -34.55624 | -58.41766 | 28 ft | 2 kts | 115° |
| 2026-04-21 23:57 | -34.55622 | -58.41757 | 28 ft | 2 kts | 78° |
| 2026-04-21 23:57 | -34.55597 | -58.41748 | 28 ft | 5 kts | 6° |
| 2026-04-21 23:57 | -34.55555 | -58.41737 | 27 ft | 7 kts | 26° |
| 2026-04-21 23:57 | -34.55537 | -58.41724 | 25 ft | 0 kts | 31° |